Time;durP1;ratioP1;P1;durP2;ratioP2;P2;SDS_P1;SDS_P2;PMS_P1;PMS_P2;Temp;Humidity;BMP_temperature;BMP_pressure;BME280_temperature;BME280_humidity;BME280_pressure;Samples;Min_cycle;Max_cycle;Signal;HPM_P1;HPM_P2
2022/05/23 00:01:44;;;;;;;6.13;2.50;;;12.50;99.90;;;;;;5031646;28;20037;-83
2022/05/23 00:04:11;;;;;;;6.53;2.00;;;12.40;99.90;;;;;;5008263;28;20046;-84
2022/05/23 00:06:37;;;;;;;5.22;2.05;;;12.50;99.90;;;;;;5009325;28;20045;-84
2022/05/23 00:09:03;;;;;;;3.70;2.00;;;12.50;99.90;;;;;;5019764;28;20128;-83
2022/05/23 00:11:29;;;;;;;5.43;2.00;;;12.40;99.90;;;;;;5032031;28;20052;-82
2022/05/23 00:13:55;;;;;;;5.55;1.98;;;12.50;99.90;;;;;;4987926;28;20041;-82
2022/05/23 00:16:24;;;;;;;3.80;2.10;;;12.40;99.90;;;;;;5033375;28;20076;-82
2022/05/23 00:18:51;;;;;;;5.68;1.75;;;12.40;99.90;;;;;;5029199;28;20068;-83
2022/05/23 00:21:18;;;;;;;5.78;1.98;;;12.30;99.90;;;;;;5029840;28;20045;-83
2022/05/23 00:23:44;;;;;;;5.35;1.90;;;12.40;99.90;;;;;;5012036;28;20046;-82
2022/05/23 00:26:19;;;;;;;3.20;1.85;;;12.40;99.90;;;;;;5048957;28;20099;-83
2022/05/23 00:28:45;;;;;;;4.65;1.70;;;12.30;99.90;;;;;;5030658;28;20045;-82
2022/05/23 00:31:12;;;;;;;3.80;1.80;;;12.20;99.90;;;;;;5013960;28;20065;-83
2022/05/23 00:36:28;;;;;;;4.13;1.80;;;12.10;99.90;;;;;;5031359;28;20049;-83
2022/05/23 00:38:54;;;;;;;2.63;1.88;;;12.00;99.90;;;;;;5013972;28;20052;-83
2022/05/23 00:44:32;;;;;;;3.85;2.20;;;12.00;99.90;;;;;;5013716;28;20761;-83
2022/05/23 00:46:59;;;;;;;2.80;1.80;;;11.90;99.90;;;;;;5028802;28;20041;-83
2022/05/23 00:49:28;;;;;;;5.10;2.03;;;11.90;99.90;;;;;;5018032;28;20135;-83
2022/05/23 00:51:56;;;;;;;4.57;2.35;;;11.90;99.90;;;;;;5018180;28;20059;-83
2022/05/23 00:54:24;;;;;;;4.90;2.08;;;11.80;99.90;;;;;;5029433;28;20064;-82
2022/05/23 00:56:52;;;;;;;4.88;1.98;;;11.70;99.90;;;;;;5046974;28;20076;-84
2022/05/23 00:59:26;;;;;;;3.40;1.92;;;11.70;99.90;;;;;;5015523;28;20053;-83
2022/05/23 01:01:52;;;;;;;3.97;2.08;;;11.70;99.90;;;;;;5032124;28;20041;-82
2022/05/23 01:04:17;;;;;;;4.55;2.47;;;11.70;99.90;;;;;;5014407;28;20056;-83
2022/05/23 01:06:43;;;;;;;6.38;2.65;;;11.70;99.90;;;;;;5012583;28;20064;-85
2022/05/23 01:09:10;;;;;;;2.58;1.85;;;11.60;99.90;;;;;;5029598;28;20076;-83
2022/05/23 01:11:36;;;;;;;4.47;2.08;;;11.50;99.90;;;;;;5016100;28;20103;-83
2022/05/23 01:14:01;;;;;;;5.55;2.40;;;11.50;99.90;;;;;;5034735;28;20044;-83
2022/05/23 01:16:27;;;;;;;5.57;2.10;;;11.50;99.90;;;;;;4986217;28;20053;-82
2022/05/23 01:18:53;;;;;;;5.80;2.15;;;11.40;99.90;;;;;;4997006;28;20045;-83
2022/05/23 01:21:33;;;;;;;4.75;2.05;;;11.40;99.90;;;;;;5014399;28;20046;-83
2022/05/23 01:24:07;;;;;;;5.20;2.00;;;11.40;99.90;;;;;;5011658;28;20052;-83
2022/05/23 01:26:33;;;;;;;4.97;2.10;;;11.40;99.90;;;;;;5013827;28;20080;-82
2022/05/23 01:28:59;;;;;;;4.80;2.45;;;11.40;99.90;;;;;;5013008;28;20517;-83
2022/05/23 01:31:24;;;;;;;5.22;2.67;;;11.40;99.90;;;;;;5015527;28;20037;-83
2022/05/23 01:33:50;;;;;;;6.05;2.00;;;11.40;99.90;;;;;;4991584;28;20577;-82
2022/05/23 01:36:16;;;;;;;4.82;2.25;;;11.50;99.90;;;;;;5045732;28;20049;-83
2022/05/23 01:38:43;;;;;;;4.80;2.30;;;11.40;99.90;;;;;;5046641;28;20044;-82
2022/05/23 01:41:09;;;;;;;6.55;2.20;;;11.40;99.90;;;;;;5014070;28;20051;-82
2022/05/23 01:43:35;;;;;;;4.20;2.10;;;11.50;99.90;;;;;;5042918;28;20037;-83
2022/05/23 01:46:00;;;;;;;4.45;2.22;;;11.50;99.90;;;;;;5045968;28;20047;-82
2022/05/23 01:48:27;;;;;;;5.72;1.95;;;11.50;99.90;;;;;;5029040;28;20053;-82
2022/05/23 01:50:52;;;;;;;3.78;2.33;;;11.40;99.90;;;;;;5034572;28;20041;-83
2022/05/23 01:53:18;;;;;;;6.22;2.80;;;11.50;99.90;;;;;;5020589;28;20509;-82
2022/05/23 01:55:44;;;;;;;4.45;2.00;;;11.50;99.90;;;;;;5044411;28;20052;-82
2022/05/23 01:58:10;;;;;;;4.15;2.00;;;11.50;99.90;;;;;;4996028;28;20171;-82
2022/05/23 02:03:20;;;;;;;4.18;1.92;;;11.50;99.90;;;;;;5023282;28;20107;-82
2022/05/23 02:05:46;;;;;;;5.35;2.70;;;11.50;99.90;;;;;;5014858;28;20053;-83
2022/05/23 02:08:12;;;;;;;4.75;2.55;;;11.60;99.90;;;;;;5028536;28;20057;-83
2022/05/23 02:10:38;;;;;;;3.33;2.40;;;11.60;99.90;;;;;;5027509;28;20410;-83
2022/05/23 02:13:04;;;;;;;7.38;2.65;;;11.60;99.90;;;;;;5044247;28;20049;-84
2022/05/23 02:15:32;;;;;;;3.53;2.50;;;11.60;99.90;;;;;;5035136;28;20128;-83
2022/05/23 02:18:03;;;;;;;4.00;2.53;;;11.60;99.90;;;;;;5041961;28;20053;-82
2022/05/23 02:20:29;;;;;;;4.35;2.40;;;11.60;99.90;;;;;;4986906;28;20045;-82
2022/05/23 02:22:55;;;;;;;4.80;2.60;;;11.60;99.90;;;;;;5011254;28;20526;-82
2022/05/23 02:25:23;;;;;;;5.50;2.60;;;11.60;99.90;;;;;;5030452;28;20049;-83
2022/05/23 02:27:49;;;;;;;5.75;2.92;;;11.60;99.90;;;;;;5044743;28;20049;-82
2022/05/23 02:30:15;;;;;;;4.07;2.50;;;11.50;99.90;;;;;;5025979;28;20055;-82
2022/05/23 02:32:41;;;;;;;4.57;2.90;;;11.60;99.90;;;;;;4993996;28;20048;-82
2022/05/23 02:35:07;;;;;;;5.00;2.90;;;11.60;99.90;;;;;;5029639;28;20040;-82
2022/05/23 02:37:33;;;;;;;7.82;3.45;;;11.60;99.90;;;;;;5000204;28;20410;-82
2022/05/23 02:39:59;;;;;;;4.78;3.08;;;11.70;99.90;;;;;;4995826;28;20037;-83
2022/05/23 02:42:25;;;;;;;5.18;3.45;;;11.70;99.90;;;;;;5023479;28;20183;-82
2022/05/23 02:44:50;;;;;;;8.40;3.17;;;11.80;99.90;;;;;;4994601;28;20041;-84
2022/05/23 02:47:16;;;;;;;5.65;3.40;;;11.80;99.90;;;;;;4998295;28;20094;-83
2022/05/23 02:49:42;;;;;;;6.65;3.83;;;11.90;99.90;;;;;;5014293;28;20544;-82
2022/05/23 02:52:07;;;;;;;4.95;3.35;;;11.90;99.90;;;;;;5027845;28;20045;-82
2022/05/23 02:54:34;;;;;;;5.32;3.58;;;12.00;99.90;;;;;;5028835;28;20092;-85
2022/05/23 02:57:00;;;;;;;6.10;3.63;;;11.90;99.90;;;;;;5025973;28;20527;-83
2022/05/23 02:59:26;;;;;;;6.57;3.60;;;12.00;99.90;;;;;;5007057;28;20115;-82
2022/05/23 03:04:37;;;;;;;7.25;3.80;;;12.00;99.90;;;;;;4980490;28;20050;-84
2022/05/23 03:07:02;;;;;;;4.43;3.90;;;12.00;99.90;;;;;;5019044;28;20049;-82
2022/05/23 03:09:30;;;;;;;6.30;4.00;;;12.00;99.90;;;;;;4977582;28;20042;-85
2022/05/23 03:11:55;;;;;;;6.93;4.18;;;12.00;99.90;;;;;;5010106;28;20045;-81
2022/05/23 03:14:21;;;;;;;6.88;3.90;;;12.00;99.90;;;;;;5027004;28;20045;-82
2022/05/23 03:16:47;;;;;;;8.18;3.90;;;12.00;99.90;;;;;;5013013;28;20080;-83
2022/05/23 03:19:13;;;;;;;6.05;3.78;;;12.00;99.90;;;;;;4993915;28;20092;-83
2022/05/23 03:27:06;;;;;;;6.55;3.90;;;12.00;99.90;;;;;;5013501;28;20095;-82
2022/05/23 03:29:32;;;;;;;6.88;3.60;;;12.10;99.90;;;;;;5024316;28;20052;-81
2022/05/23 03:31:58;;;;;;;5.80;4.10;;;12.10;99.90;;;;;;5019788;28;20120;-82
2022/05/23 03:34:24;;;;;;;5.72;3.63;;;12.00;99.90;;;;;;4999045;28;20129;-82
2022/05/23 03:36:49;;;;;;;6.63;3.75;;;12.00;99.90;;;;;;5017270;28;20037;-82
2022/05/23 03:39:16;;;;;;;7.53;4.10;;;12.00;99.90;;;;;;4999077;28;20068;-82
2022/05/23 03:41:42;;;;;;;8.15;3.92;;;12.00;99.90;;;;;;5007430;28;20458;-82
2022/05/23 03:44:08;;;;;;;6.18;3.97;;;11.90;99.90;;;;;;5015345;28;20042;-83
2022/05/23 03:46:34;;;;;;;6.35;3.97;;;11.90;99.90;;;;;;5016120;28;20474;-82
2022/05/23 03:49:01;;;;;;;7.30;4.05;;;11.90;99.90;;;;;;5002611;28;20063;-82
2022/05/23 03:51:27;;;;;;;6.50;4.18;;;11.90;99.90;;;;;;5015493;28;20046;-82
2022/05/23 03:53:53;;;;;;;5.15;4.05;;;12.00;99.90;;;;;;5001770;28;20122;-82
2022/05/23 03:56:19;;;;;;;5.88;4.05;;;11.90;99.90;;;;;;5047633;28;20132;-82
2022/05/23 03:58:45;;;;;;;6.15;4.60;;;11.90;99.90;;;;;;4997927;28;20069;-83
2022/05/23 04:01:13;;;;;;;5.00;4.50;;;12.00;99.90;;;;;;5000876;28;20080;-83
2022/05/23 04:03:39;;;;;;;7.47;4.47;;;12.00;99.90;;;;;;5028148;28;20049;-83
2022/05/23 04:06:06;;;;;;;5.80;4.88;;;11.90;99.90;;;;;;5014563;28;20064;-85
2022/05/23 04:08:32;;;;;;;6.05;4.80;;;11.90;99.90;;;;;;5028862;28;20442;-82
2022/05/23 04:10:57;;;;;;;9.82;4.60;;;11.80;99.90;;;;;;5045387;28;20037;-82
2022/05/23 04:13:24;;;;;;;11.10;4.85;;;11.80;99.90;;;;;;5001393;28;20054;-82
2022/05/23 04:15:50;;;;;;;6.28;4.20;;;11.70;99.90;;;;;;5017607;28;20071;-82
2022/05/23 04:18:16;;;;;;;8.02;4.65;;;11.70;99.90;;;;;;5030479;28;20521;-83
2022/05/23 04:20:43;;;;;;;6.75;4.03;;;11.60;99.90;;;;;;5010986;28;20056;-82
2022/05/23 04:23:09;;;;;;;6.68;4.50;;;11.60;99.90;;;;;;4998490;28;20064;-84
2022/05/23 04:25:42;;;;;;;6.80;4.50;;;11.60;99.90;;;;;;5017904;28;20487;-82
2022/05/23 04:28:09;;;;;;;7.45;4.25;;;11.60;99.90;;;;;;5031933;28;20051;-84
2022/05/23 04:30:35;;;;;;;7.03;4.30;;;11.60;99.90;;;;;;5055924;28;20061;-82
2022/05/23 04:35:48;;;;;;;6.45;4.38;;;11.60;99.90;;;;;;5033947;28;20053;-84
2022/05/23 04:38:14;;;;;;;10.23;4.60;;;11.60;99.90;;;;;;5014220;28;20092;-82
2022/05/23 04:40:40;;;;;;;9.23;4.40;;;11.60;99.90;;;;;;5030148;28;20176;-83
2022/05/23 04:43:05;;;;;;;8.77;5.10;;;11.70;99.90;;;;;;5019333;28;20041;-82
2022/05/23 04:45:31;;;;;;;7.07;4.95;;;11.70;99.90;;;;;;5018031;28;20042;-82
2022/05/23 04:50:41;;;;;;;8.20;5.65;;;11.70;99.90;;;;;;5017010;28;20056;-81
2022/05/23 04:53:07;;;;;;;8.50;5.03;;;11.80;99.90;;;;;;4999760;28;20037;-81
2022/05/23 04:55:35;;;;;;;7.60;5.18;;;11.80;99.90;;;;;;5031459;28;20153;-82
2022/05/23 04:58:01;;;;;;;6.45;4.60;;;11.90;99.90;;;;;;5029088;28;20053;-81
2022/05/23 05:00:29;;;;;;;6.18;4.65;;;12.00;99.90;;;;;;5015279;28;20044;-81
2022/05/23 05:02:59;;;;;;;6.15;4.95;;;12.00;99.90;;;;;;5028259;28;20085;-81
2022/05/23 05:05:27;;;;;;;5.13;4.57;;;12.10;99.90;;;;;;5015333;28;20084;-82
2022/05/23 05:07:53;;;;;;;8.90;5.10;;;12.20;99.90;;;;;;5023900;28;20506;-81
2022/05/23 05:10:21;;;;;;;7.28;5.00;;;12.30;99.90;;;;;;5040527;28;20507;-83
2022/05/23 05:12:48;;;;;;;8.07;4.70;;;12.40;99.90;;;;;;5022272;28;20175;-81
2022/05/23 05:15:14;;;;;;;6.68;4.30;;;12.60;99.90;;;;;;5020129;28;20053;-84
2022/05/23 05:17:39;;;;;;;6.03;4.28;;;12.60;99.90;;;;;;5000251;28;20057;-83
2022/05/23 05:20:08;;;;;;;8.77;4.55;;;12.80;99.90;;;;;;5008252;28;20095;-83
2022/05/23 05:22:35;;;;;;;7.15;4.70;;;12.90;99.90;;;;;;5003189;28;20868;-86
2022/05/23 05:25:02;;;;;;;7.97;4.63;;;13.00;99.90;;;;;;5029025;28;20376;-82
2022/05/23 05:27:29;;;;;;;9.57;4.60;;;13.00;99.90;;;;;;5015087;28;20061;-83
2022/05/23 05:29:55;;;;;;;7.60;4.55;;;13.20;99.90;;;;;;4996614;28;20048;-86
2022/05/23 05:32:28;;;;;;;9.75;4.20;;;13.30;99.90;;;;;;5005400;28;20057;-84
2022/05/23 05:35:12;;;;;;;7.90;5.07;;;13.50;99.90;;;;;;4996244;28;20140;-84
2022/05/23 05:37:45;;;;;;;7.60;4.55;;;13.60;99.90;;;;;;5018532;28;20615;-86
2022/05/23 05:40:14;;;;;;;8.05;4.55;;;13.70;99.90;;;;;;5003121;28;20379;-84
2022/05/23 05:42:44;;;;;;;9.23;4.88;;;13.80;99.90;;;;;;5018769;28;20061;-84
2022/05/23 05:45:17;;;;;;;6.60;4.72;;;13.90;99.90;;;;;;5005918;28;20160;-86
2022/05/23 05:47:46;;;;;;;7.32;4.85;;;14.00;99.90;;;;;;5019832;28;20438;-83
2022/05/23 05:50:21;;;;;;;7.88;4.95;;;14.00;99.90;;;;;;5025474;28;20045;-84
2022/05/23 05:52:48;;;;;;;7.35;4.35;;;14.00;99.90;;;;;;5027012;28;20046;-84
2022/05/23 05:55:34;;;;;;;9.10;5.05;;;14.00;99.90;;;;;;4998168;28;20132;-84
2022/05/23 05:57:59;;;;;;;7.20;5.03;;;14.00;99.90;;;;;;4991090;28;20058;-85
2022/05/23 06:00:26;;;;;;;7.55;4.57;;;14.00;99.90;;;;;;5013482;28;20067;-85
2022/05/23 06:02:51;;;;;;;10.85;5.00;;;14.00;99.90;;;;;;5026054;28;20371;-85
2022/05/23 06:05:18;;;;;;;9.05;5.35;;;14.00;99.90;;;;;;5013167;28;20121;-85
2022/05/23 06:13:17;;;;;;;8.48;5.00;;;14.20;99.90;;;;;;5011817;28;20081;-85
2022/05/23 06:15:45;;;;;;;9.60;4.85;;;14.50;99.90;;;;;;4994063;28;20123;-86
2022/05/23 06:18:10;;;;;;;8.10;4.40;;;14.80;99.90;;;;;;4980628;28;20052;-84
2022/05/23 06:20:36;;;;;;;9.27;4.70;;;15.10;99.90;;;;;;4993760;28;20145;-85
2022/05/23 06:23:03;;;;;;;8.50;4.88;;;15.40;99.90;;;;;;5041580;28;20056;-84
2022/05/23 06:25:29;;;;;;;10.90;4.90;;;15.70;99.90;;;;;;5029887;28;20049;-85
2022/05/23 06:27:54;;;;;;;7.07;4.93;;;16.00;99.90;;;;;;5014222;28;20115;-84
2022/05/23 06:30:20;;;;;;;8.23;4.68;;;16.30;99.90;;;;;;4997801;28;20060;-84
2022/05/23 06:32:46;;;;;;;7.60;4.32;;;16.50;99.90;;;;;;5030393;28;20048;-87
2022/05/23 06:35:13;;;;;;;7.85;5.10;;;16.70;99.90;;;;;;5014564;28;20136;-85
2022/05/23 06:37:40;;;;;;;10.55;4.68;;;16.90;99.90;;;;;;5014437;28;20091;-85
2022/05/23 06:40:08;;;;;;;10.10;4.95;;;17.00;99.90;;;;;;5030818;28;20561;-85
2022/05/23 06:42:34;;;;;;;8.07;4.80;;;17.20;99.90;;;;;;5000109;28;20446;-85
2022/05/23 06:45:05;;;;;;;6.47;4.30;;;17.30;99.90;;;;;;5031128;28;20075;-85
2022/05/23 06:47:30;;;;;;;8.27;4.47;;;17.50;99.90;;;;;;5030385;28;20399;-85
2022/05/23 06:49:57;;;;;;;7.20;4.68;;;17.60;99.90;;;;;;5015610;28;20037;-85
2022/05/23 06:52:23;;;;;;;7.40;4.43;;;17.70;99.90;;;;;;5008073;28;20131;-86
2022/05/23 06:54:49;;;;;;;6.93;4.30;;;17.90;99.90;;;;;;5013911;28;20132;-85
2022/05/23 06:57:14;;;;;;;6.97;4.28;;;18.10;99.90;;;;;;5014797;28;20053;-86
2022/05/23 06:59:40;;;;;;;7.10;4.28;;;18.30;99.90;;;;;;5037798;28;20038;-85
2022/05/23 07:02:07;;;;;;;9.75;4.57;;;18.40;99.90;;;;;;4982038;28;20050;-85
2022/05/23 07:12:51;;;;;;;6.57;4.30;;;19.10;99.80;;;;;;5018370;28;20045;-85
2022/05/23 07:15:17;;;;;;;6.43;3.83;;;19.30;99.90;;;;;;5016944;28;20098;-85
2022/05/23 07:17:42;;;;;;;6.93;4.10;;;19.50;99.20;;;;;;5050977;28;20498;-84
2022/05/23 07:20:08;;;;;;;7.90;4.28;;;19.90;97.40;;;;;;5035320;28;20049;-84
2022/05/23 07:22:34;;;;;;;8.00;3.95;;;20.20;95.60;;;;;;5016641;28;20044;-85
2022/05/23 07:25:01;;;;;;;7.88;4.10;;;20.60;95.10;;;;;;5019583;28;20049;-85
2022/05/23 07:27:28;;;;;;;6.65;3.85;;;20.90;93.40;;;;;;4984885;28;20050;-85
2022/05/23 07:29:53;;;;;;;5.93;3.13;;;21.20;90.40;;;;;;5039947;28;20041;-85
2022/05/23 07:32:19;;;;;;;6.47;3.22;;;21.50;87.80;;;;;;5003232;28;20055;-85
2022/05/23 07:34:45;;;;;;;6.28;3.00;;;21.80;84.90;;;;;;5034814;28;20049;-88
2022/05/23 07:37:11;;;;;;;6.65;3.40;;;21.90;82.70;;;;;;5016867;28;20046;-85
2022/05/23 07:39:39;;;;;;;8.52;3.70;;;22.10;80.60;;;;;;5032281;28;20049;-85
2022/05/23 07:42:07;;;;;;;5.57;3.10;;;22.10;76.40;;;;;;5022108;28;20701;-85
2022/05/23 07:44:36;;;;;;;9.38;3.30;;;22.10;76.10;;;;;;5052557;28;20088;-88
2022/05/23 07:47:05;;;;;;;6.38;3.30;;;22.10;75.40;;;;;;5020893;28;20057;-86
2022/05/23 07:49:31;;;;;;;6.38;3.25;;;22.20;74.40;;;;;;5017946;28;20072;-85
2022/05/23 07:51:56;;;;;;;5.60;2.97;;;22.30;74.50;;;;;;5039810;28;20077;-85
2022/05/23 08:02:38;;;;;;;6.97;3.50;;;23.30;68.80;;;;;;5019770;28;20060;-85
2022/05/23 08:05:04;;;;;;;4.47;3.00;;;23.70;67.40;;;;;;5021660;28;20057;-86
2022/05/23 08:07:30;;;;;;;5.82;3.20;;;24.00;66.60;;;;;;5026969;28;20041;-86
2022/05/23 08:10:00;;;;;;;8.77;3.58;;;24.20;64.00;;;;;;5030344;28;20042;-85
2022/05/23 08:12:27;;;;;;;8.48;3.30;;;24.60;63.20;;;;;;5017763;28;20056;-83
2022/05/23 08:14:53;;;;;;;5.25;3.05;;;25.10;61.20;;;;;;5041085;28;20398;-84
2022/05/23 08:17:19;;;;;;;5.93;3.20;;;25.40;59.80;;;;;;5049492;28;20041;-85
2022/05/23 08:19:44;;;;;;;5.57;2.80;;;25.60;57.80;;;;;;5037973;28;20083;-85
2022/05/23 08:22:10;;;;;;;5.97;3.00;;;25.90;58.20;;;;;;5042067;28;20046;-85
2022/05/23 08:24:36;;;;;;;5.53;3.08;;;26.30;56.50;;;;;;5026294;28;20049;-86
2022/05/23 08:27:02;;;;;;;4.55;2.67;;;26.50;55.90;;;;;;5023750;28;20046;-83
2022/05/23 08:29:27;;;;;;;6.75;2.88;;;26.80;54.90;;;;;;5034903;28;20044;-83
2022/05/23 08:31:53;;;;;;;5.72;2.65;;;27.10;53.50;;;;;;5014006;28;20052;-82
2022/05/23 08:34:19;;;;;;;7.03;3.10;;;27.20;52.60;;;;;;5000758;28;20080;-82
2022/05/23 08:36:45;;;;;;;7.95;2.65;;;27.20;52.30;;;;;;5033173;28;20041;-82
2022/05/23 08:39:13;;;;;;;7.20;2.75;;;27.10;50.90;;;;;;5016539;28;20080;-82
2022/05/23 08:41:39;;;;;;;5.18;2.78;;;27.00;51.00;;;;;;5016511;28;20128;-85
2022/05/23 08:44:17;;;;;;;4.78;2.78;;;27.00;51.50;;;;;;5023198;28;20077;-84
2022/05/23 08:46:53;;;;;;;5.18;2.75;;;27.10;51.30;;;;;;5017552;28;20049;-82
2022/05/23 08:49:52;;;;;;;5.13;2.40;;;27.50;51.40;;;;;;4996641;28;20056;-82
2022/05/23 08:52:35;;;;;;;5.28;2.70;;;27.90;50.50;;;;;;5019426;28;20037;-82
2022/05/23 08:55:04;;;;;;;7.72;2.42;;;28.30;49.30;;;;;;5050242;28;20053;-82
2022/05/23 08:58:00;;;;;;;5.18;2.80;;;28.50;49.90;;;;;;5021202;28;20049;-82
2022/05/23 09:00:41;;;;;;;6.07;2.60;;;28.80;47.70;;;;;;5031795;28;20048;-83
2022/05/23 09:03:28;;;;;;;5.90;2.30;;;29.00;47.30;;;;;;5064790;28;20041;-83
2022/05/23 09:06:05;;;;;;;4.70;2.10;;;29.20;46.10;;;;;;5040845;28;20449;-87
2022/05/23 09:08:37;;;;;;;4.63;2.30;;;29.60;46.10;;;;;;5032346;28;20046;-84
2022/05/23 09:11:09;;;;;;;4.93;2.50;;;30.20;45.20;;;;;;5034736;28;20057;-82
2022/05/23 09:13:44;;;;;;;3.70;1.92;;;30.50;44.40;;;;;;5024407;28;20111;-82
2022/05/23 09:16:12;;;;;;;5.05;2.22;;;30.90;43.20;;;;;;5025742;28;20118;-82
2022/05/23 09:19:03;;;;;;;5.50;2.60;;;30.90;42.70;;;;;;5037113;28;20552;-82
2022/05/23 09:24:16;;;;;;;3.33;2.13;;;31.30;42.00;;;;;;5030993;28;20046;-82
2022/05/23 09:26:44;;;;;;;6.25;2.42;;;31.70;41.60;;;;;;5048991;28;20095;-86
2022/05/23 09:29:10;;;;;;;4.68;1.58;;;31.80;40.40;;;;;;5033041;28;20080;-83
2022/05/23 09:31:50;;;;;;;2.70;1.80;;;31.90;39.70;;;;;;5023788;28;20037;-82
2022/05/23 09:34:43;;;;;;;5.07;1.90;;;32.20;38.80;;;;;;5013696;28;20045;-82
2022/05/23 09:37:20;;;;;;;4.63;1.80;;;32.60;38.60;;;;;;5015304;28;20522;-82
2022/05/23 09:39:55;;;;;;;5.65;1.80;;;32.80;37.50;;;;;;5050955;28;20048;-82
2022/05/23 09:48:20;;;;;;;4.78;1.80;;;31.00;38.80;;;;;;5039740;28;20417;-84
2022/05/23 09:51:00;;;;;;;4.72;1.60;;;30.70;38.60;;;;;;5002320;28;20041;-83
2022/05/23 09:53:29;;;;;;;5.47;1.70;;;31.30;38.40;;;;;;5031302;28;20046;-82
2022/05/23 09:56:41;;;;;;;5.40;1.58;;;32.00;38.30;;;;;;5036310;28;20045;-82
2022/05/23 09:59:18;;;;;;;3.10;1.40;;;32.40;37.40;;;;;;5014530;28;20115;-83
2022/05/23 10:01:46;;;;;;;3.83;1.35;;;31.90;36.70;;;;;;5030564;28;20041;-86
2022/05/23 10:04:26;;;;;;;2.85;1.40;;;31.20;36.80;;;;;;5046784;28;20046;-83
2022/05/23 10:06:51;;;;;;;5.32;1.63;;;30.40;35.70;;;;;;5028318;28;20049;-83
2022/05/23 10:09:33;;;;;;;4.60;1.65;;;29.60;38.00;;;;;;5032755;28;20128;-83
2022/05/23 10:12:06;;;;;;;5.05;2.15;;;29.20;39.80;;;;;;5032387;28;20045;-84
2022/05/23 10:15:00;;;;;;;7.82;1.98;;;29.00;40.70;;;;;;5046279;28;20049;-83
2022/05/23 10:17:35;;;;;;;4.55;1.92;;;28.90;41.90;;;;;;5033589;28;20109;-83
2022/05/23 10:20:23;;;;;;;5.43;1.92;;;29.30;42.20;;;;;;5032906;28;20490;-83
2022/05/23 10:23:23;;;;;;;4.60;2.00;;;29.60;41.90;;;;;;5045559;28;20442;-83
2022/05/23 10:26:07;;;;;;;4.50;1.83;;;29.40;42.50;;;;;;5026328;28;20049;-86
2022/05/23 10:28:48;;;;;;;3.45;1.70;;;29.30;42.10;;;;;;5024532;28;20684;-83
2022/05/23 10:31:21;;;;;;;5.40;2.10;;;29.30;42.20;;;;;;4998190;28;20418;-86
2022/05/23 10:33:59;;;;;;;5.88;2.63;;;29.30;42.30;;;;;;5022139;28;20364;-87
2022/05/23 10:36:29;;;;;;;7.47;2.10;;;29.30;42.90;;;;;;5025902;28;20053;-83
2022/05/23 10:42:07;;;;;;;4.32;2.35;;;30.10;41.50;;;;;;5034914;28;20046;-84
2022/05/23 10:45:03;;;;;;;4.82;2.13;;;30.60;41.50;;;;;;5033328;28;20128;-83
2022/05/23 10:47:58;;;;;;;5.05;2.10;;;30.70;39.20;;;;;;5022433;28;20133;-83
2022/05/23 10:50:46;;;;;;;5.22;2.65;;;31.30;40.10;;;;;;5015877;28;20053;-83
2022/05/23 10:53:17;;;;;;;4.57;2.03;;;32.50;38.60;;;;;;5014699;28;20124;-83
2022/05/23 10:56:09;;;;;;;6.53;2.05;;;33.40;37.60;;;;;;5042643;28;20141;-83
2022/05/23 10:58:43;;;;;;;2.67;1.55;;;34.00;36.00;;;;;;5018809;28;20439;-82
2022/05/23 11:01:14;;;;;;;4.20;1.50;;;34.80;34.30;;;;;;5028731;28;20736;-83
2022/05/23 11:04:02;;;;;;;4.82;1.60;;;35.40;32.00;;;;;;5030109;28;20445;-83
2022/05/23 11:06:44;;;;;;;5.75;1.98;;;35.70;30.90;;;;;;5030508;28;20128;-82
2022/05/23 11:09:37;;;;;;;2.95;1.80;;;36.20;30.50;;;;;;5012648;28;20132;-82
2022/05/23 11:12:21;;;;;;;4.45;1.80;;;36.70;30.60;;;;;;5046105;28;20484;-82
2022/05/23 11:15:10;;;;;;;4.20;1.83;;;37.40;30.20;;;;;;5042942;28;20099;-83
2022/05/23 11:17:48;;;;;;;3.75;1.45;;;37.60;30.70;;;;;;5061293;28;20050;-83
2022/05/23 11:20:21;;;;;;;4.97;1.55;;;37.90;28.80;;;;;;5027992;28;20084;-82
2022/05/23 11:22:54;;;;;;;4.38;1.90;;;37.80;28.80;;;;;;5029545;28;20050;-83
2022/05/23 11:25:38;;;;;;;6.63;1.70;;;37.70;28.10;;;;;;5034912;28;20120;-86
2022/05/23 11:34:23;;;;;;;2.17;1.00;;;37.90;27.60;;;;;;5028920;28;20049;-82
2022/05/23 11:37:00;;;;;;;3.03;1.30;;;37.70;27.00;;;;;;5027091;28;20579;-83
2022/05/23 11:39:52;;;;;;;4.22;1.08;;;37.40;26.80;;;;;;5029036;28;20441;-85
2022/05/23 11:42:35;;;;;;;2.97;0.98;;;37.20;27.60;;;;;;5012109;28;20164;-83
2022/05/23 11:45:57;;;;;;;3.35;1.25;;;37.10;27.20;;;;;;5008558;28;20058;-83
2022/05/23 11:47:56;;;;;;;4.10;1.25;;;37.00;26.70;;;;;;5026298;28;20100;-84
2022/05/23 11:50:28;;;;;;;3.72;1.30;;;36.20;27.60;;;;;;5046980;28;20038;-84
2022/05/23 11:53:19;;;;;;;2.05;1.10;;;35.50;28.10;;;;;;5038964;28;20081;-85
2022/05/23 11:55:50;;;;;;;2.30;1.20;;;35.00;29.30;;;;;;5026650;28;20053;-84
2022/05/23 11:58:39;;;;;;;5.78;1.67;;;34.90;29.40;;;;;;5012300;28;20136;-83
2022/05/23 12:01:10;;;;;;;3.40;1.50;;;35.10;27.90;;;;;;5015249;28;20046;-85
2022/05/23 12:03:50;;;;;;;2.13;1.27;;;35.00;29.20;;;;;;5044241;28;20509;-83
2022/05/23 12:06:22;;;;;;;4.05;1.65;;;34.40;29.70;;;;;;5048064;28;20651;-85
2022/05/23 12:09:02;;;;;;;2.72;1.70;;;34.10;30.40;;;;;;5015958;28;20140;-83
2022/05/23 12:11:33;;;;;;;4.88;1.60;;;34.30;31.00;;;;;;5032750;28;20130;-83
2022/05/23 12:14:16;;;;;;;3.90;1.67;;;34.70;30.10;;;;;;5015749;28;20064;-87
2022/05/23 12:17:06;;;;;;;4.90;1.35;;;35.10;30.30;;;;;;5031362;28;20050;-84
2022/05/23 12:19:46;;;;;;;5.05;1.42;;;35.30;30.20;;;;;;5035435;28;20049;-84
2022/05/23 12:22:23;;;;;;;3.15;1.50;;;35.70;29.40;;;;;;5034023;28;20042;-84
2022/05/23 12:25:07;;;;;;;5.10;1.23;;;36.60;28.50;;;;;;5049328;28;20056;-82
2022/05/23 12:27:33;;;;;;;5.90;1.50;;;37.20;27.30;;;;;;5004692;28;20080;-83
2022/05/23 12:30:17;;;;;;;4.55;1.20;;;36.80;27.20;;;;;;5029000;28;20547;-87
2022/05/23 12:32:58;;;;;;;4.25;1.67;;;35.60;27.70;;;;;;5030738;28;20045;-83
2022/05/23 12:35:39;;;;;;;2.78;1.17;;;34.30;28.50;;;;;;5019331;28;20076;-83
2022/05/23 12:38:32;;;;;;;6.95;1.58;;;33.10;29.90;;;;;;5028237;28;20081;-84
2022/05/23 12:41:30;;;;;;;3.13;1.30;;;31.80;31.00;;;;;;5039305;28;20048;-83
2022/05/23 12:44:14;;;;;;;4.53;1.52;;;30.70;32.30;;;;;;5007625;28;20659;-83
2022/05/23 12:47:01;;;;;;;5.22;1.70;;;30.10;34.00;;;;;;5051002;28;20453;-84
2022/05/23 12:49:27;;;;;;;4.05;1.70;;;29.70;35.00;;;;;;5021538;28;20142;-83
2022/05/23 12:51:58;;;;;;;4.50;1.67;;;29.50;35.40;;;;;;5015850;28;20232;-83
2022/05/23 12:54:56;;;;;;;6.30;1.70;;;29.40;36.60;;;;;;5046684;28;20057;-83
2022/05/23 12:57:28;;;;;;;3.40;1.85;;;29.30;36.80;;;;;;5003353;28;20046;-83
2022/05/23 12:59:59;;;;;;;4.53;1.98;;;29.20;37.50;;;;;;5024394;28;20045;-83
2022/05/23 13:02:31;;;;;;;5.15;1.98;;;29.30;37.90;;;;;;5037212;28;20482;-82
2022/05/23 13:05:06;;;;;;;2.83;1.85;;;29.20;37.50;;;;;;5037066;28;20136;-82
2022/05/23 13:07:41;;;;;;;4.47;2.28;;;29.10;38.50;;;;;;5047454;28;20133;-84
2022/05/23 13:10:11;;;;;;;6.93;1.92;;;29.10;38.10;;;;;;5031795;28;20050;-83
2022/05/23 13:13:18;;;;;;;3.78;1.80;;;28.90;39.00;;;;;;5045089;28;20060;-83
2022/05/23 13:15:44;;;;;;;3.47;1.88;;;28.70;40.20;;;;;;5010564;28;20097;-84
2022/05/23 13:23:39;;;;;;;4.10;2.08;;;27.80;42.40;;;;;;5031906;28;20111;-83
2022/05/23 13:26:08;;;;;;;4.63;2.08;;;27.40;43.50;;;;;;5036040;28;20049;-86
2022/05/23 13:28:48;;;;;;;5.85;2.33;;;26.90;45.60;;;;;;5016826;28;20091;-87
2022/05/23 13:31:24;;;;;;;5.57;2.15;;;26.50;47.00;;;;;;5022902;28;20545;-86
2022/05/23 13:33:50;;;;;;;5.32;2.42;;;26.30;47.30;;;;;;5039173;28;20100;-85
2022/05/23 13:36:15;;;;;;;4.53;2.08;;;26.40;46.60;;;;;;5012769;28;20045;-86
2022/05/23 13:38:56;;;;;;;5.45;2.00;;;27.00;46.30;;;;;;4988617;28;20046;-86
2022/05/23 13:41:28;;;;;;;3.35;1.80;;;27.40;45.40;;;;;;5012927;28;20041;-85
2022/05/23 13:43:54;;;;;;;4.78;2.03;;;27.70;43.60;;;;;;5063507;28;20115;-85
2022/05/23 13:46:38;;;;;;;4.90;2.00;;;27.80;42.50;;;;;;5013721;28;20057;-85
2022/05/23 13:49:16;;;;;;;5.10;2.35;;;27.70;42.90;;;;;;5030466;28;20285;-88
2022/05/23 13:51:52;;;;;;;4.57;2.10;;;27.60;43.00;;;;;;5047957;28;20397;-86
2022/05/23 13:54:36;;;;;;;4.80;2.20;;;27.50;43.90;;;;;;5030704;28;20498;-85
2022/05/23 13:57:13;;;;;;;4.78;2.10;;;27.30;44.00;;;;;;4997721;28;20050;-86
2022/05/23 13:59:49;;;;;;;5.63;2.45;;;27.10;43.20;;;;;;5010626;28;20038;-84
2022/05/23 14:02:22;;;;;;;4.45;1.90;;;26.90;44.90;;;;;;4997895;28;20044;-86
2022/05/23 14:04:49;;;;;;;7.07;2.08;;;26.70;45.90;;;;;;5018147;28;20497;-85
2022/05/23 14:07:19;;;;;;;4.97;2.70;;;26.50;47.70;;;;;;5044161;28;20060;-83
2022/05/23 14:09:49;;;;;;;6.63;2.20;;;26.30;49.60;;;;;;5010626;28;20056;-82
2022/05/23 14:12:21;;;;;;;4.40;2.25;;;26.40;48.10;;;;;;5030406;28;20427;-83
2022/05/23 14:15:14;;;;;;;8.00;2.15;;;26.50;47.80;;;;;;5030612;28;20200;-83